CNV4434 ORMM-ORBI
Flight info
| Callsign | CNV4434 |
|---|---|
| Flight time | 0h 51m |
| Altitude | 36000 |
| Route | ALPET L602 LOVEK |
| Aircraft | B737/M-SDE2E3FGHIRWXY/LB1 |
Departure
| Time | 2026-05-07 00:06 |
|---|---|
| Airport | Basra International Airport (ORMM) |
Arrival
| Time | 2026-05-07 00:58 |
|---|---|
| Airport | Baghdad International Airport / New Al Muthana Air Base (ORBI) |
| Time | Latitude | Longitude | Altitude | Speed | Heading |
|---|---|---|---|---|---|
| 2026-05-06 23:43 | 30.55414 | 47.66564 | 19 ft | 0 kts | 48° |
| 2026-05-06 23:55 | 30.55413 | 47.66563 | 19 ft | 1 kts | 48° |
| 2026-05-06 23:55 | 30.55403 | 47.66550 | 19 ft | 2 kts | 48° |
| 2026-05-06 23:56 | 30.55393 | 47.66537 | 19 ft | 2 kts | 48° |
| 2026-05-06 23:56 | 30.55383 | 47.66524 | 19 ft | 2 kts | 48° |
| 2026-05-06 23:56 | 30.55375 | 47.66515 | 19 ft | 0 kts | 48° |
| 2026-05-06 23:56 | 30.55366 | 47.66504 | 19 ft | 2 kts | 30° |
| 2026-05-06 23:57 | 30.55352 | 47.66498 | 19 ft | 2 kts | 12° |
| 2026-05-06 23:57 | 30.55337 | 47.66497 | 19 ft | 2 kts | 353° |
| 2026-05-06 23:57 | 30.55322 | 47.66501 | 19 ft | 2 kts | 334° |
| 2026-05-06 23:57 | 30.55312 | 47.66508 | 19 ft | 0 kts | 320° |
| 2026-05-06 23:58 | 30.55308 | 47.66513 | 19 ft | 0 kts | 317° |
| 2026-05-06 23:59 | 30.55311 | 47.66510 | 19 ft | 3 kts | 317° |
| 2026-05-06 23:59 | 30.55361 | 47.66456 | 19 ft | 15 kts | 317° |
| 2026-05-07 00:00 | 30.55416 | 47.66358 | 19 ft | 13 kts | 257° |
| 2026-05-07 00:00 | 30.55352 | 47.66269 | 19 ft | 14 kts | 228° |
| 2026-05-07 00:00 | 30.55281 | 47.66190 | 19 ft | 13 kts | 195° |
| 2026-05-07 00:00 | 30.55197 | 47.66238 | 19 ft | 15 kts | 136° |
| 2026-05-07 00:01 | 30.55117 | 47.66323 | 19 ft | 15 kts | 137° |
| 2026-05-07 00:01 | 30.55034 | 47.66412 | 19 ft | 16 kts | 138° |
| 2026-05-07 00:01 | 30.54948 | 47.66502 | 19 ft | 16 kts | 138° |
| 2026-05-07 00:01 | 30.54862 | 47.66591 | 19 ft | 16 kts | 138° |
| 2026-05-07 00:02 | 30.54772 | 47.66682 | 19 ft | 17 kts | 138° |
| 2026-05-07 00:02 | 30.54682 | 47.66779 | 19 ft | 17 kts | 136° |
| 2026-05-07 00:02 | 30.54592 | 47.66877 | 19 ft | 17 kts | 137° |
| 2026-05-07 00:02 | 30.54499 | 47.66975 | 19 ft | 18 kts | 139° |
| 2026-05-07 00:03 | 30.54404 | 47.67074 | 19 ft | 18 kts | 137° |
| 2026-05-07 00:03 | 30.54307 | 47.67175 | 19 ft | 18 kts | 138° |
| 2026-05-07 00:03 | 30.54209 | 47.67278 | 19 ft | 19 kts | 138° |
| 2026-05-07 00:03 | 30.54110 | 47.67381 | 19 ft | 19 kts | 138° |
| 2026-05-07 00:04 | 30.54007 | 47.67488 | 19 ft | 19 kts | 138° |
| 2026-05-07 00:04 | 30.53904 | 47.67596 | 19 ft | 20 kts | 138° |
| 2026-05-07 00:04 | 30.53798 | 47.67705 | 19 ft | 20 kts | 139° |
| 2026-05-07 00:04 | 30.53694 | 47.67794 | 19 ft | 16 kts | 184° |
| 2026-05-07 00:05 | 30.53612 | 47.67712 | 19 ft | 15 kts | 229° |
| 2026-05-07 00:05 | 30.53563 | 47.67634 | 19 ft | 5 kts | 270° |
| 2026-05-07 00:05 | 30.53586 | 47.67599 | 19 ft | 6 kts | 317° |
| 2026-05-07 00:05 | 30.53697 | 47.67481 | 19 ft | 51 kts | 317° |
| 2026-05-07 00:06 | 30.54136 | 47.67022 | 19 ft | 114 kts | 318° |
| 2026-05-07 00:06 | 30.54845 | 47.66281 | 108 ft | 154 kts | 317° |
| 2026-05-07 00:06 | 30.55640 | 47.65448 | 774 ft | 155 kts | 319° |
| 2026-05-07 00:06 | 30.56395 | 47.64578 | 1423 ft | 161 kts | 309° |
| 2026-05-07 00:07 | 30.56774 | 47.63255 | 1961 ft | 186 kts | 289° |
| 2026-05-07 00:07 | 30.57283 | 47.61848 | 2601 ft | 200 kts | 304° |
| 2026-05-07 00:07 | 30.58025 | 47.60399 | 3242 ft | 221 kts | 303° |
| 2026-05-07 00:07 | 30.58820 | 47.58789 | 3937 ft | 238 kts | 301° |
| 2026-05-07 00:08 | 30.59665 | 47.57064 | 4627 ft | 255 kts | 300° |
| 2026-05-07 00:08 | 30.60562 | 47.55236 | 5430 ft | 267 kts | 298° |
| 2026-05-07 00:08 | 30.61478 | 47.53372 | 6328 ft | 273 kts | 297° |
| 2026-05-07 00:08 | 30.62411 | 47.51474 | 7295 ft | 276 kts | 297° |
| 2026-05-07 00:09 | 30.63366 | 47.49530 | 8317 ft | 278 kts | 296° |
| 2026-05-07 00:09 | 30.64321 | 47.47582 | 9303 ft | 283 kts | 295° |
| 2026-05-07 00:09 | 30.65291 | 47.45606 | 10387 ft | 285 kts | 295° |
| 2026-05-07 00:09 | 30.66278 | 47.43587 | 11198 ft | 297 kts | 295° |
| 2026-05-07 00:10 | 30.67314 | 47.41468 | 12035 ft | 308 kts | 296° |
| 2026-05-07 00:10 | 30.68367 | 47.39320 | 13150 ft | 309 kts | 296° |
| 2026-05-07 00:10 | 30.69427 | 47.37162 | 14236 ft | 312 kts | 296° |
| 2026-05-07 00:10 | 30.70493 | 47.34980 | 15186 ft | 319 kts | 295° |
| 2026-05-07 00:11 | 30.71609 | 47.32694 | 16129 ft | 327 kts | 295° |
| 2026-05-07 00:11 | 30.72724 | 47.30412 | 17065 ft | 333 kts | 295° |
| 2026-05-07 00:11 | 30.73871 | 47.28065 | 17967 ft | 340 kts | 295° |
| 2026-05-07 00:11 | 30.75036 | 47.25679 | 18965 ft | 343 kts | 295° |
| 2026-05-07 00:12 | 30.76226 | 47.23241 | 19926 ft | 346 kts | 294° |
| 2026-05-07 00:12 | 30.77409 | 47.20818 | 20822 ft | 351 kts | 294° |
| 2026-05-07 00:12 | 30.78619 | 47.18336 | 21694 ft | 355 kts | 294° |
| 2026-05-07 00:12 | 30.79840 | 47.15826 | 22568 ft | 358 kts | 294° |
| 2026-05-07 00:13 | 30.81059 | 47.13316 | 23377 ft | 363 kts | 293° |
| 2026-05-07 00:13 | 30.82296 | 47.10770 | 24151 ft | 366 kts | 293° |
| 2026-05-07 00:13 | 30.83550 | 47.08190 | 24972 ft | 368 kts | 292° |
| 2026-05-07 00:13 | 30.84813 | 47.05591 | 25765 ft | 369 kts | 292° |
| 2026-05-07 00:14 | 30.86064 | 47.03018 | 26500 ft | 371 kts | 292° |
| 2026-05-07 00:14 | 30.87332 | 47.00404 | 27176 ft | 373 kts | 291° |
| 2026-05-07 00:14 | 30.88613 | 46.97757 | 27767 ft | 378 kts | 291° |
| 2026-05-07 00:14 | 30.89903 | 46.95091 | 28460 ft | 380 kts | 291° |
| 2026-05-07 00:15 | 30.91182 | 46.92460 | 29484 ft | 371 kts | 290° |
| 2026-05-07 00:15 | 30.92444 | 46.89865 | 30312 ft | 366 kts | 290° |
| 2026-05-07 00:15 | 30.93689 | 46.87291 | 31062 ft | 363 kts | 289° |
| 2026-05-07 00:15 | 30.94912 | 46.84762 | 31808 ft | 359 kts | 289° |
| 2026-05-07 00:16 | 30.96128 | 46.82242 | 32522 ft | 356 kts | 289° |
| 2026-05-07 00:16 | 30.97328 | 46.79751 | 33180 ft | 353 kts | 288° |
| 2026-05-07 00:16 | 30.98515 | 46.77284 | 33816 ft | 352 kts | 288° |
| 2026-05-07 00:16 | 30.99714 | 46.74787 | 34461 ft | 350 kts | 288° |
| 2026-05-07 00:17 | 31.00901 | 46.72313 | 35078 ft | 348 kts | 288° |
| 2026-05-07 00:17 | 31.02065 | 46.69891 | 35730 ft | 345 kts | 288° |
| 2026-05-07 00:17 | 31.03251 | 46.67411 | 35926 ft | 352 kts | 288° |
| 2026-05-07 00:17 | 31.04447 | 46.64894 | 35945 ft | 362 kts | 288° |
| 2026-05-07 00:18 | 31.06920 | 46.59732 | 35935 ft | 364 kts | 289° |
| 2026-05-07 00:18 | 31.09412 | 46.54558 | 35940 ft | 361 kts | 288° |
| 2026-05-07 00:19 | 31.11893 | 46.49365 | 35939 ft | 363 kts | 289° |
| 2026-05-07 00:19 | 31.14355 | 46.44217 | 35937 ft | 362 kts | 288° |
| 2026-05-07 00:20 | 31.16814 | 46.39063 | 35931 ft | 364 kts | 288° |
| 2026-05-07 00:20 | 31.19296 | 46.33869 | 35932 ft | 365 kts | 289° |
| 2026-05-07 00:21 | 31.22214 | 46.28963 | 35931 ft | 372 kts | 296° |
| 2026-05-07 00:21 | 31.25550 | 46.24290 | 35930 ft | 374 kts | 298° |
| 2026-05-07 00:22 | 31.28900 | 46.19630 | 35935 ft | 377 kts | 298° |
| 2026-05-07 00:22 | 31.32285 | 46.14921 | 35937 ft | 376 kts | 298° |
| 2026-05-07 00:23 | 31.35652 | 46.10228 | 35939 ft | 375 kts | 298° |
| 2026-05-07 00:23 | 31.39008 | 46.05541 | 35948 ft | 377 kts | 298° |
| 2026-05-07 00:24 | 31.42373 | 46.00835 | 35943 ft | 377 kts | 298° |
| 2026-05-07 00:24 | 31.45723 | 45.96161 | 35947 ft | 372 kts | 298° |
| 2026-05-07 00:25 | 31.49068 | 45.91466 | 35951 ft | 377 kts | 298° |
| 2026-05-07 00:25 | 31.52450 | 45.86715 | 35949 ft | 380 kts | 298° |
| 2026-05-07 00:26 | 31.55827 | 45.81982 | 35950 ft | 379 kts | 298° |
| 2026-05-07 00:26 | 31.59235 | 45.77191 | 35958 ft | 379 kts | 298° |
| 2026-05-07 00:27 | 31.62620 | 45.72419 | 35953 ft | 382 kts | 298° |
| 2026-05-07 00:27 | 31.66008 | 45.67651 | 35955 ft | 381 kts | 298° |
| 2026-05-07 00:28 | 31.69352 | 45.62931 | 35950 ft | 381 kts | 298° |
| 2026-05-07 00:28 | 31.72753 | 45.58121 | 35958 ft | 382 kts | 298° |
| 2026-05-07 00:29 | 31.76149 | 45.53321 | 35956 ft | 381 kts | 298° |
| 2026-05-07 00:30 | 31.82943 | 45.43716 | 35955 ft | 383 kts | 298° |
| 2026-05-07 00:30 | 31.86348 | 45.38919 | 35961 ft | 382 kts | 298° |
| 2026-05-07 00:31 | 31.89767 | 45.34088 | 35963 ft | 385 kts | 298° |
| 2026-05-07 00:31 | 31.93188 | 45.29256 | 35963 ft | 380 kts | 298° |
| 2026-05-07 00:32 | 31.96502 | 45.24592 | 35922 ft | 359 kts | 298° |
| 2026-05-07 00:32 | 31.98097 | 45.22337 | 35532 ft | 354 kts | 297° |
| 2026-05-07 00:32 | 31.99651 | 45.20123 | 35037 ft | 354 kts | 297° |
| 2026-05-07 00:33 | 32.01231 | 45.17867 | 34492 ft | 355 kts | 297° |
| 2026-05-07 00:33 | 32.02800 | 45.15631 | 33939 ft | 356 kts | 298° |
| 2026-05-07 00:33 | 32.04371 | 45.13395 | 33387 ft | 356 kts | 298° |
| 2026-05-07 00:33 | 32.05942 | 45.11158 | 32845 ft | 357 kts | 298° |
| 2026-05-07 00:34 | 32.07541 | 45.08881 | 32262 ft | 359 kts | 299° |
| 2026-05-07 00:34 | 32.09111 | 45.06643 | 31684 ft | 361 kts | 300° |
| 2026-05-07 00:34 | 32.10713 | 45.04361 | 31237 ft | 363 kts | 300° |
| 2026-05-07 00:34 | 32.12346 | 45.02023 | 30769 ft | 374 kts | 301° |
| 2026-05-07 00:35 | 32.14014 | 44.99641 | 30282 ft | 374 kts | 301° |
| 2026-05-07 00:35 | 32.15660 | 44.97302 | 29807 ft | 371 kts | 302° |
| 2026-05-07 00:35 | 32.17298 | 44.94973 | 29305 ft | 367 kts | 302° |
| 2026-05-07 00:35 | 32.18859 | 44.92740 | 28843 ft | 363 kts | 302° |
| 2026-05-07 00:36 | 32.20369 | 44.90572 | 28298 ft | 362 kts | 302° |
| 2026-05-07 00:36 | 32.21963 | 44.88276 | 27795 ft | 359 kts | 301° |
| 2026-05-07 00:36 | 32.23540 | 44.86008 | 27332 ft | 355 kts | 302° |
| 2026-05-07 00:36 | 32.25101 | 44.83763 | 26884 ft | 350 kts | 302° |
| 2026-05-07 00:37 | 32.26677 | 44.81628 | 26353 ft | 351 kts | 306° |
| 2026-05-07 00:37 | 32.28525 | 44.79720 | 25867 ft | 358 kts | 317° |
| 2026-05-07 00:37 | 32.30740 | 44.78316 | 25393 ft | 364 kts | 329° |
| 2026-05-07 00:37 | 32.33135 | 44.77284 | 24918 ft | 366 kts | 336° |
| 2026-05-07 00:38 | 32.35648 | 44.76752 | 24445 ft | 374 kts | 350° |
| 2026-05-07 00:38 | 32.38265 | 44.76891 | 23950 ft | 379 kts | 1° |
| 2026-05-07 00:38 | 32.40868 | 44.77479 | 23428 ft | 383 kts | 10° |
| 2026-05-07 00:38 | 32.43361 | 44.78680 | 22878 ft | 390 kts | 26° |
| 2026-05-07 00:39 | 32.45572 | 44.80498 | 22384 ft | 391 kts | 36° |
| 2026-05-07 00:39 | 32.47566 | 44.82693 | 21937 ft | 389 kts | 45° |
| 2026-05-07 00:39 | 32.49284 | 44.85111 | 21501 ft | 386 kts | 50° |
| 2026-05-07 00:39 | 32.50924 | 44.87619 | 21071 ft | 383 kts | 51° |
| 2026-05-07 00:40 | 32.52530 | 44.90103 | 20653 ft | 379 kts | 51° |
| 2026-05-07 00:40 | 32.54138 | 44.92545 | 20229 ft | 375 kts | 49° |
| 2026-05-07 00:40 | 32.55882 | 44.94805 | 19793 ft | 369 kts | 38° |
| 2026-05-07 00:40 | 32.58010 | 44.96403 | 19381 ft | 356 kts | 17° |
| 2026-05-07 00:41 | 32.60344 | 44.97333 | 18977 ft | 352 kts | 10° |
| 2026-05-07 00:41 | 32.62720 | 44.97928 | 18565 ft | 349 kts | 358° |
| 2026-05-07 00:41 | 32.65081 | 44.97741 | 18291 ft | 334 kts | 341° |
| 2026-05-07 00:41 | 32.67372 | 44.97069 | 17335 ft | 345 kts | 335° |
| 2026-05-07 00:42 | 32.69540 | 44.95950 | 16446 ft | 344 kts | 322° |
| 2026-05-07 00:42 | 32.71423 | 44.94225 | 15558 ft | 340 kts | 310° |
| 2026-05-07 00:42 | 32.73003 | 44.92220 | 14695 ft | 331 kts | 302° |
| 2026-05-07 00:42 | 32.74280 | 44.90025 | 13851 ft | 323 kts | 297° |
| 2026-05-07 00:43 | 32.75464 | 44.87770 | 13003 ft | 319 kts | 296° |
| 2026-05-07 00:43 | 32.76622 | 44.85563 | 12288 ft | 312 kts | 297° |
| 2026-05-07 00:43 | 32.77760 | 44.83418 | 11736 ft | 301 kts | 297° |
| 2026-05-07 00:43 | 32.78854 | 44.81363 | 11308 ft | 288 kts | 297° |
| 2026-05-07 00:44 | 32.79905 | 44.79388 | 10928 ft | 275 kts | 297° |
| 2026-05-07 00:44 | 32.80900 | 44.77516 | 10575 ft | 267 kts | 297° |
| 2026-05-07 00:44 | 32.81885 | 44.75657 | 10217 ft | 266 kts | 297° |
| 2026-05-07 00:44 | 32.82868 | 44.73806 | 9887 ft | 264 kts | 297° |
| 2026-05-07 00:45 | 32.83846 | 44.71969 | 9645 ft | 261 kts | 297° |
| 2026-05-07 00:45 | 32.84809 | 44.70156 | 9299 ft | 259 kts | 298° |
| 2026-05-07 00:45 | 32.85769 | 44.68350 | 8969 ft | 257 kts | 298° |
| 2026-05-07 00:45 | 32.86716 | 44.66566 | 8639 ft | 256 kts | 298° |
| 2026-05-07 00:46 | 32.87674 | 44.64762 | 8304 ft | 255 kts | 299° |
| 2026-05-07 00:46 | 32.88612 | 44.62995 | 7985 ft | 256 kts | 300° |
| 2026-05-07 00:46 | 32.89569 | 44.61193 | 7643 ft | 254 kts | 300° |
| 2026-05-07 00:46 | 32.90500 | 44.59439 | 7319 ft | 251 kts | 301° |
| 2026-05-07 00:47 | 32.91434 | 44.57676 | 6991 ft | 250 kts | 301° |
| 2026-05-07 00:47 | 32.92367 | 44.55915 | 6666 ft | 249 kts | 301° |
| 2026-05-07 00:47 | 32.93285 | 44.54182 | 6345 ft | 248 kts | 302° |
| 2026-05-07 00:47 | 32.94207 | 44.52439 | 6023 ft | 246 kts | 302° |
| 2026-05-07 00:48 | 32.95115 | 44.50724 | 5706 ft | 246 kts | 302° |
| 2026-05-07 00:48 | 32.96032 | 44.48990 | 5381 ft | 245 kts | 302° |
| 2026-05-07 00:48 | 32.96945 | 44.47264 | 5063 ft | 246 kts | 303° |
| 2026-05-07 00:48 | 32.97841 | 44.45569 | 4748 ft | 244 kts | 303° |
| 2026-05-07 00:49 | 32.98747 | 44.43853 | 4435 ft | 241 kts | 303° |
| 2026-05-07 00:49 | 32.99618 | 44.42202 | 4138 ft | 234 kts | 304° |
| 2026-05-07 00:49 | 33.00471 | 44.40583 | 3982 ft | 222 kts | 304° |
| 2026-05-07 00:49 | 33.01392 | 44.39182 | 3850 ft | 208 kts | 321° |
| 2026-05-07 00:50 | 33.02578 | 44.38302 | 3668 ft | 194 kts | 332° |
| 2026-05-07 00:50 | 33.03689 | 44.37555 | 3512 ft | 173 kts | 331° |
| 2026-05-07 00:50 | 33.04678 | 44.36873 | 3321 ft | 153 kts | 331° |
| 2026-05-07 00:50 | 33.05549 | 44.36268 | 3128 ft | 135 kts | 331° |
| 2026-05-07 00:51 | 33.06316 | 44.35730 | 2986 ft | 121 kts | 332° |
| 2026-05-07 00:51 | 33.07035 | 44.35215 | 2871 ft | 122 kts | 332° |
| 2026-05-07 00:51 | 33.07771 | 44.34697 | 2750 ft | 122 kts | 332° |
| 2026-05-07 00:51 | 33.08505 | 44.34176 | 2658 ft | 120 kts | 332° |
| 2026-05-07 00:52 | 33.09233 | 44.33659 | 2664 ft | 121 kts | 332° |
| 2026-05-07 00:52 | 33.09969 | 44.33150 | 2667 ft | 123 kts | 332° |
| 2026-05-07 00:52 | 33.10699 | 44.32646 | 2666 ft | 123 kts | 332° |
| 2026-05-07 00:52 | 33.11460 | 44.32120 | 2663 ft | 122 kts | 332° |
| 2026-05-07 00:53 | 33.12196 | 44.31614 | 2668 ft | 123 kts | 332° |
| 2026-05-07 00:53 | 33.12942 | 44.31103 | 2635 ft | 122 kts | 332° |
| 2026-05-07 00:53 | 33.13671 | 44.30602 | 2494 ft | 117 kts | 333° |
| 2026-05-07 00:53 | 33.14377 | 44.30109 | 2348 ft | 116 kts | 333° |
| 2026-05-07 00:54 | 33.15072 | 44.29621 | 2192 ft | 114 kts | 333° |
| 2026-05-07 00:54 | 33.15759 | 44.29134 | 2034 ft | 114 kts | 333° |
| 2026-05-07 00:54 | 33.16435 | 44.28648 | 1876 ft | 113 kts | 334° |
| 2026-05-07 00:54 | 33.17101 | 44.28173 | 1713 ft | 110 kts | 335° |
| 2026-05-07 00:55 | 33.17771 | 44.27733 | 1525 ft | 111 kts | 336° |
| 2026-05-07 00:55 | 33.18475 | 44.27317 | 1391 ft | 112 kts | 338° |
| 2026-05-07 00:55 | 33.19173 | 44.26892 | 1267 ft | 114 kts | 335° |
| 2026-05-07 00:55 | 33.19875 | 44.26445 | 1135 ft | 113 kts | 335° |
| 2026-05-07 00:56 | 33.20568 | 44.25997 | 1002 ft | 115 kts | 334° |
| 2026-05-07 00:56 | 33.21264 | 44.25522 | 872 ft | 115 kts | 332° |
| 2026-05-07 00:56 | 33.21963 | 44.25039 | 726 ft | 115 kts | 333° |
| 2026-05-07 00:56 | 33.22668 | 44.24562 | 566 ft | 116 kts | 332° |
| 2026-05-07 00:57 | 33.23363 | 44.24087 | 411 ft | 116 kts | 331° |
| 2026-05-07 00:57 | 33.24070 | 44.23599 | 243 ft | 118 kts | 331° |
| 2026-05-07 00:57 | 33.24769 | 44.23114 | 123 ft | 110 kts | 331° |
| 2026-05-07 00:57 | 33.25344 | 44.22723 | 120 ft | 75 kts | 331° |
| 2026-05-07 00:58 | 33.25692 | 44.22484 | 120 ft | 43 kts | 328° |
| 2026-05-07 00:58 | 33.25944 | 44.22310 | 120 ft | 40 kts | 330° |
| 2026-05-07 00:58 | 33.26180 | 44.22148 | 120 ft | 38 kts | 330° |
| 2026-05-07 00:58 | 33.26408 | 44.21993 | 120 ft | 37 kts | 329° |